Herzlich willkommen!

Am freundlichen Bodensee-Flugplatz zwischen Schwarzwald, Rhein und Alpen.

Aktuelles

Es liegen keine aktuellen Meldungen vor. Wir freuen uns auf Ihren Besuch!

Live am Platz

Die Bilder unserer Webcams werden alle 5 Minuten aktualisiert.

Sonnenaufgang:

06:20 UTC / 07:20 Lokal

Sonnenuntergang:

16:54 UTC / 17:54 Lokal

METAR (19.02.2019 15:50 UTC):

EDNY 191550Z 23005KT CAVOK 12/02 Q1020
VFR

TAF (19.02.2019 11:00 UTC):

TAF EDNY 191100Z 1912/2012 VRB02KT 9999 FEW050 TEMPO 1912/1916 23005KT PROB30 TEMPO 2003/2008 2000 BCFG

Alle Angaben unverbindlich und ohne Gewähr. Zeiten genähert.

Für den Verkehrslandeplatz Konstanz werden keine offiziellen Wetterinformationen ausgegeben. Daher werden zur Orientierung Daten des nahegelegenen Flughafens Friedrichshafen dargestellt.

Flugwetterdaten zur Verfügung gestellt von wippich.aero.